createdAt,value
2019-03-02T00:03:10.404Z,98741.66
2019-03-02T00:05:39.727Z,98737.36
2019-03-02T00:08:09.051Z,98741.87
2019-03-02T00:10:40.756Z,98733.83
2019-03-02T00:13:27.620Z,98739.52
2019-03-02T00:15:56.962Z,98734.21
2019-03-02T00:18:25.885Z,98734.34
2019-03-02T00:21:14.808Z,98736.13
2019-03-02T00:23:44.150Z,98735.53
2019-03-02T00:26:13.479Z,98731.33
2019-03-02T00:28:42.853Z,98734.13
2019-03-02T00:31:12.192Z,98731.33
2019-03-02T00:33:41.767Z,98731.86
2019-03-02T00:36:11.135Z,98726.16
2019-03-02T00:38:40.718Z,98727.21
2019-03-02T00:41:29.745Z,98726.02
2019-03-02T00:43:59.787Z,98728.96
2019-03-02T00:46:31.804Z,98721.97
2019-03-02T00:49:00.416Z,98724.02
2019-03-02T00:51:29.745Z,98725.19
2019-03-02T00:53:59.103Z,98718.72
2019-03-02T00:56:28.443Z,98721.75
2019-03-02T00:58:57.073Z,98716.70
2019-03-02T01:01:28.703Z,98720.86
2019-03-02T01:06:59.183Z,98721.70
2019-03-02T01:09:27.813Z,98713.74
2019-03-02T01:11:57.149Z,98719.13
2019-03-02T01:14:28.734Z,98716.09
2019-03-02T01:17:15.717Z,98724.14
2019-03-02T01:19:45.064Z,98717.76
2019-03-02T01:22:16.555Z,98716.91
2019-03-02T01:25:04.370Z,98715.71
2019-03-02T01:27:35.107Z,98722.94
2019-03-02T01:30:22.933Z,98726.59
2019-03-02T01:32:52.900Z,98721.41
2019-03-02T01:35:22.304Z,98719.97
2019-03-02T01:37:51.647Z,98720.41
2019-03-02T01:40:20.299Z,98726.42
2019-03-02T01:42:49.630Z,98723.84
2019-03-02T01:45:19.080Z,98720.04
2019-03-02T01:47:51.146Z,98727.36
2019-03-02T01:50:37.637Z,98724.88
2019-03-02T01:53:09.980Z,98725.30
2019-03-02T01:56:06.173Z,98724.64
2019-03-02T01:58:53.072Z,98728.67
2019-03-02T02:01:24.827Z,98730.17
2019-03-02T02:03:53.498Z,98730.63
2019-03-02T02:06:22.118Z,98729.99
2019-03-02T02:08:52.765Z,98731.28
2019-03-02T02:11:22.260Z,98739.95
2019-03-02T02:13:51.586Z,98737.02
2019-03-02T02:16:21.139Z,98734.13
2019-03-02T02:18:49.764Z,98742.20
2019-03-02T02:21:19.116Z,98739.57
2019-03-02T02:23:49.797Z,98738.72
2019-03-02T02:26:37.697Z,98740.69
2019-03-02T02:29:08.212Z,98745.56
2019-03-02T02:31:56.252Z,98752.46
2019-03-02T02:34:24.902Z,98749.16
2019-03-02T02:36:58.131Z,98754.43
2019-03-02T02:39:43.493Z,98754.59
2019-03-02T02:42:12.844Z,98757.14
2019-03-02T02:44:42.188Z,98759.58
2019-03-02T02:47:12.759Z,98760.42
2019-03-02T02:50:00.963Z,98756.64
2019-03-02T02:52:30.281Z,98754.09
2019-03-02T02:55:02.293Z,98761.39
2019-03-02T02:57:48.845Z,98770.23
2019-03-02T03:00:20.135Z,98766.59
2019-03-02T03:02:48.766Z,98769.98
2019-03-02T03:05:17.692Z,98767.16
2019-03-02T03:07:52.845Z,98770.40
2019-03-02T03:10:37.972Z,98770.94
2019-03-02T03:13:07.307Z,98773.52
2019-03-02T03:15:41.119Z,98770.20
2019-03-02T03:18:14.909Z,98767.31
2019-03-02T03:20:59.605Z,98766.48
2019-03-02T03:23:28.255Z,98767.46
2019-03-02T03:25:58.571Z,98770.66
2019-03-02T03:28:46.409Z,98774.73
2019-03-02T03:31:23.215Z,98777.11
2019-03-02T03:34:04.972Z,98779.94
2019-03-02T03:36:35.525Z,98767.96
2019-03-02T03:39:23.620Z,98772.70
2019-03-02T03:41:52.933Z,98774.87
2019-03-02T03:44:25.884Z,98769.89
2019-03-02T03:46:56.221Z,98773.92
2019-03-02T03:49:44.308Z,98771.28
2019-03-02T03:52:13.681Z,98775.76
2019-03-02T03:54:45.466Z,98773.47
2019-03-02T03:57:32.246Z,98766.72
2019-03-02T04:00:01.689Z,98762.23
2019-03-02T04:02:31.238Z,98765.19
2019-03-02T04:05:07.668Z,98758.22
2019-03-02T04:07:51.576Z,98757.75
2019-03-02T04:10:39.673Z,98760.42
2019-03-02T04:13:09.035Z,98760.25
2019-03-02T04:15:41.571Z,98759.63
2019-03-02T04:19:06.331Z,98767.00
2019-03-02T04:21:37.754Z,98766.73
2019-03-02T04:24:06.395Z,98769.65
2019-03-02T04:26:36.815Z,98769.47
2019-03-02T04:29:10.014Z,98774.16
2019-03-02T04:31:36.814Z,98775.75
2019-03-02T04:34:06.174Z,98774.80
2019-03-02T04:36:35.530Z,98782.04
2019-03-02T04:39:09.496Z,98772.38
2019-03-02T04:41:39.538Z,98764.09
2019-03-02T04:44:29.539Z,98775.22
2019-03-02T04:47:15.006Z,98770.54
2019-03-02T04:49:43.630Z,98772.99
2019-03-02T04:52:14.586Z,98776.75
2019-03-02T04:55:02.279Z,98769.62
2019-03-02T04:57:33.145Z,98782.16
2019-03-02T05:00:20.851Z,98780.39
2019-03-02T05:02:51.659Z,98778.98
2019-03-02T05:05:40.646Z,98786.73
2019-03-02T05:08:28.664Z,98790.21
2019-03-02T05:11:00.699Z,98794.98
2019-03-02T05:13:47.235Z,98796.56
2019-03-02T05:16:19.509Z,98800.84
2019-03-02T05:18:49.710Z,98800.97
2019-03-02T05:21:39.857Z,98802.52
2019-03-02T05:24:27.361Z,98813.87
2019-03-02T05:26:56.772Z,98810.22
2019-03-02T05:29:25.560Z,98822.24
2019-03-02T05:31:54.873Z,98826.17
2019-03-02T05:34:24.226Z,98833.32
2019-03-02T05:36:53.557Z,98835.52
2019-03-02T05:39:22.905Z,98830.02
2019-03-02T05:41:53.196Z,98836.67
2019-03-02T05:44:22.525Z,98836.38
2019-03-02T05:47:11.404Z,98846.51
2019-03-02T05:49:40.751Z,98850.63
2019-03-02T05:52:10.117Z,98850.67
2019-03-02T05:54:41.563Z,98857.11
2019-03-02T05:57:28.176Z,98859.77
2019-03-02T05:59:58.652Z,98853.08
2019-03-02T06:02:46.653Z,98857.30
2019-03-02T06:05:35.379Z,98860.30
2019-03-02T06:08:04.716Z,98864.54
2019-03-02T06:10:34.271Z,98870.70
2019-03-02T06:13:03.628Z,98860.40
2019-03-02T06:15:32.981Z,98865.53
2019-03-02T06:18:04.363Z,98867.02
2019-03-02T06:20:32.603Z,98855.88
2019-03-02T06:23:21.426Z,98861.70
2019-03-02T06:25:50.070Z,98856.06
2019-03-02T06:28:19.568Z,98855.23
2019-03-02T06:31:08.650Z,98870.61
2019-03-02T06:33:48.613Z,98868.55
2019-03-02T06:36:17.192Z,98872.60
2019-03-02T06:38:46.554Z,98873.05
2019-03-02T06:41:15.876Z,98872.13
2019-03-02T06:43:45.219Z,98874.92
2019-03-02T06:46:15.868Z,98880.36
2019-03-02T06:49:03.818Z,98882.22
2019-03-02T06:51:32.476Z,98880.60
2019-03-02T06:54:01.822Z,98884.10
2019-03-02T06:56:32.635Z,98888.79
2019-03-02T06:59:19.676Z,98896.87
2019-03-02T07:01:48.326Z,98891.39
2019-03-02T07:04:18.081Z,98889.30
2019-03-02T07:07:06.278Z,98887.60
2019-03-02T07:09:35.592Z,98887.95
2019-03-02T07:12:05.947Z,98889.80
2019-03-02T07:14:54.163Z,98887.09
2019-03-02T07:17:42.291Z,98885.47
2019-03-02T07:20:31.366Z,98890.43
2019-03-02T07:23:00.748Z,98890.13
2019-03-02T07:25:49.892Z,98889.83
2019-03-02T07:28:19.235Z,98887.69
2019-03-02T07:30:47.898Z,98889.32
2019-03-02T07:33:17.666Z,98883.66
2019-03-02T07:35:46.271Z,98879.41
2019-03-02T07:38:16.905Z,98881.99
2019-03-02T07:41:04.945Z,98879.59
2019-03-02T07:43:33.617Z,98874.02
2019-03-02T07:46:03.076Z,98887.19
2019-03-02T07:48:33.151Z,98884.61
2019-03-02T07:51:21.700Z,98893.38
2019-03-02T07:53:51.034Z,98886.34
2019-03-02T07:56:20.839Z,98886.34
2019-03-02T07:58:51.882Z,98892.14
2019-03-02T08:01:39.473Z,98893.98
2019-03-02T08:04:08.840Z,98900.52
2019-03-02T08:06:38.088Z,98887.72
2019-03-02T08:09:07.535Z,98900.72
2019-03-02T08:11:36.895Z,98897.94
2019-03-02T08:14:08.804Z,98909.03
2019-03-02T08:16:54.786Z,98900.88
2019-03-02T08:19:24.240Z,98906.98
2019-03-02T08:21:53.598Z,98911.48
2019-03-02T08:24:22.937Z,98908.79
2019-03-02T08:26:52.275Z,98911.50
2019-03-02T08:29:22.064Z,98906.77
2019-03-02T08:32:13.384Z,98905.38
2019-03-02T08:34:46.291Z,98903.16
2019-03-02T08:37:32.122Z,98905.02
2019-03-02T08:40:02.104Z,98905.00
2019-03-02T08:42:31.447Z,98899.84
2019-03-02T08:44:59.977Z,98902.86
2019-03-02T08:47:28.824Z,98902.97
2019-03-02T08:49:58.144Z,98906.94
2019-03-02T08:52:28.354Z,98906.75
2019-03-02T08:54:58.342Z,98911.94
2019-03-02T08:57:47.045Z,98912.69
2019-03-02T09:00:38.880Z,98909.47
2019-03-02T09:03:24.957Z,98916.18
2019-03-02T09:05:55.558Z,98915.46
2019-03-02T09:08:43.603Z,98916.33
2019-03-02T09:11:12.432Z,98921.02
2019-03-02T09:13:41.091Z,98917.29
2019-03-02T09:16:09.756Z,98924.77
2019-03-02T09:18:45.389Z,98924.39
2019-03-02T09:21:28.349Z,98921.05
2019-03-02T09:23:57.704Z,98931.52
2019-03-02T09:26:26.340Z,98918.89
2019-03-02T09:28:56.120Z,98924.91
2019-03-02T09:31:46.803Z,98924.53
2019-03-02T09:34:36.965Z,98915.64
2019-03-02T09:37:07.041Z,98927.06
2019-03-02T09:39:54.112Z,98921.18
2019-03-02T09:42:23.472Z,98921.64
2019-03-02T09:44:52.045Z,98929.09
2019-03-02T09:47:21.371Z,98922.48
2019-03-02T09:49:50.720Z,98927.39
2019-03-02T09:52:20.197Z,98925.73
2019-03-02T09:54:49.617Z,98927.14
2019-03-02T09:57:19.029Z,98924.03
2019-03-02T09:59:48.474Z,98916.80
2019-03-02T10:02:17.143Z,98918.52
2019-03-02T10:04:45.827Z,98917.80
2019-03-02T10:07:15.209Z,98913.72
2019-03-02T10:09:44.087Z,98910.56
2019-03-02T10:12:13.740Z,98903.73
2019-03-02T10:15:15.025Z,98900.02
2019-03-02T10:17:43.853Z,98904.59
2019-03-02T10:20:13.376Z,98902.05
2019-03-02T10:22:42.830Z,98904.72
2019-03-02T10:25:12.320Z,98909.27
2019-03-02T10:27:43.155Z,98904.59
2019-03-02T10:30:14.027Z,98910.95
2019-03-02T10:32:42.777Z,98904.07
2019-03-02T10:38:14.993Z,98905.39
2019-03-02T10:41:04.040Z,98907.30
2019-03-02T10:43:33.417Z,98904.30
2019-03-02T10:46:02.923Z,98905.59
2019-03-02T10:48:32.267Z,98903.58
2019-03-02T10:51:02.438Z,98892.09
2019-03-02T10:53:50.973Z,98894.30
2019-03-02T10:56:20.875Z,98892.83
2019-03-02T10:59:11.931Z,98882.30
2019-03-02T11:01:58.197Z,98877.21
2019-03-02T11:04:47.021Z,98879.93
2019-03-02T11:07:35.145Z,98879.22
2019-03-02T11:10:40.010Z,98875.50
2019-03-02T11:13:33.961Z,98884.32
2019-03-02T11:16:21.972Z,98872.70
2019-03-02T11:19:11.409Z,98886.66
2019-03-02T11:22:00.803Z,98884.61
2019-03-02T11:24:49.605Z,98881.91
2019-03-02T11:27:37.642Z,98879.80
2019-03-02T11:30:27.319Z,98872.95
2019-03-02T11:33:15.433Z,98877.08
2019-03-02T11:39:06.658Z,98871.74
2019-03-02T11:41:54.983Z,98879.08
2019-03-02T11:44:43.124Z,98883.52
2019-03-02T11:47:33.004Z,98889.30
2019-03-02T11:50:21.326Z,98892.95
2019-03-02T11:53:29.537Z,98899.47
2019-03-02T11:56:25.091Z,98892.86
2019-03-02T11:59:26.498Z,98896.84
2019-03-02T12:02:19.696Z,98900.73
2019-03-02T12:05:24.991Z,98910.95
2019-03-02T12:08:17.943Z,98912.66
2019-03-02T12:11:23.411Z,98921.54
2019-03-02T12:14:12.229Z,98922.48
2019-03-02T12:17:04.587Z,98928.75
2019-03-02T12:20:09.881Z,98938.00
2019-03-02T12:22:57.976Z,98939.19
2019-03-02T12:25:45.995Z,98935.70
2019-03-02T12:28:36.303Z,98945.45
2019-03-02T12:31:43.624Z,98938.72
2019-03-02T12:34:34.629Z,98949.92
2019-03-02T12:37:35.412Z,98945.59
2019-03-02T12:40:44.965Z,98949.66
2019-03-02T12:43:33.102Z,98948.84
2019-03-02T12:46:09.506Z,98954.84
2019-03-02T12:49:17.305Z,98955.58
2019-03-02T12:52:05.627Z,98958.80
2019-03-02T12:54:54.002Z,98961.33
2019-03-02T12:57:45.392Z,98959.86
2019-03-02T13:00:51.553Z,98965.15
2019-03-02T13:03:39.826Z,98960.69
2019-03-02T13:06:32.115Z,98964.92
2019-03-02T13:09:16.137Z,98959.52
2019-03-02T13:12:05.690Z,98956.73
2019-03-02T13:15:09.357Z,98968.19
2019-03-02T13:17:58.641Z,98963.48
2019-03-02T13:21:05.164Z,98975.48
2019-03-02T13:23:54.016Z,98972.59
2019-03-02T13:26:40.595Z,98972.11
2019-03-02T13:29:28.719Z,98974.28
2019-03-02T13:32:19.846Z,98977.17
2019-03-02T13:35:26.094Z,98977.90
2019-03-02T13:38:14.244Z,98985.48
2019-03-02T13:40:49.151Z,98981.52
2019-03-02T13:43:37.958Z,98983.22
2019-03-02T13:46:15.265Z,98998.23
2019-03-02T13:49:04.071Z,99000.03
2019-03-02T13:51:41.177Z,99007.72
2019-03-02T13:54:15.318Z,99009.05
2019-03-02T13:57:04.731Z,99008.80
2019-03-02T14:00:10.030Z,99007.84
2019-03-02T14:02:58.839Z,99002.66
2019-03-02T14:05:46.978Z,99000.98
2019-03-02T14:11:08.477Z,98998.21
2019-03-02T14:13:47.165Z,99009.55
2019-03-02T14:16:36.329Z,99008.82
2019-03-02T14:19:25.254Z,99006.28
2019-03-02T14:22:11.348Z,99013.27
2019-03-02T14:25:22.417Z,99011.09
2019-03-02T14:28:30.425Z,99006.28
2019-03-02T14:31:39.007Z,99014.16
2019-03-02T14:34:27.099Z,99021.36
2019-03-02T14:37:01.636Z,99023.63
2019-03-02T14:39:50.572Z,99028.50
2019-03-02T14:42:39.893Z,99031.22
2019-03-02T14:45:43.077Z,99025.02
2019-03-02T14:48:32.813Z,99027.88
2019-03-02T14:51:26.100Z,99020.19
2019-03-02T14:54:17.315Z,99027.62
2019-03-02T14:57:24.692Z,99029.19
2019-03-02T15:00:18.024Z,99037.07
2019-03-02T15:03:06.914Z,99038.77
2019-03-02T15:05:57.219Z,99042.07
2019-03-02T15:08:45.647Z,99039.20
2019-03-02T15:11:36.576Z,99044.20
2019-03-02T15:14:29.534Z,99054.90
2019-03-02T15:17:18.713Z,99071.95
2019-03-02T15:20:28.883Z,99084.80
2019-03-02T15:23:38.713Z,99103.23
2019-03-02T15:26:21.355Z,99129.19
2019-03-02T15:28:57.267Z,99149.72
2019-03-02T15:31:45.790Z,99154.11
2019-03-02T15:34:34.062Z,99172.06
2019-03-02T15:37:24.205Z,99178.19
2019-03-02T15:40:33.555Z,99183.88
2019-03-02T15:43:40.657Z,99195.39
2019-03-02T15:46:32.289Z,99196.36
2019-03-02T15:49:19.475Z,99195.78
2019-03-02T15:51:54.127Z,99193.73
2019-03-02T15:54:43.031Z,99193.16
2019-03-02T15:57:39.525Z,99189.23
2019-03-02T16:00:39.955Z,99181.83
2019-03-02T16:03:20.423Z,99185.59
2019-03-02T16:06:25.653Z,99178.84
2019-03-02T16:09:30.384Z,99184.69
2019-03-02T16:12:19.329Z,99191.98
2019-03-02T16:15:08.831Z,99188.53
2019-03-02T16:18:16.714Z,99196.74
2019-03-02T16:21:06.123Z,99204.80
2019-03-02T16:23:54.232Z,99213.14
2019-03-02T16:26:43.142Z,99212.30
2019-03-02T16:29:31.453Z,99216.10
2019-03-02T16:32:20.237Z,99223.33
2019-03-02T16:35:09.986Z,99229.28
2019-03-02T16:37:50.061Z,99236.45
2019-03-02T16:40:59.415Z,99240.42
2019-03-02T16:44:06.798Z,99249.20
2019-03-02T16:46:55.589Z,99266.81
2019-03-02T16:49:43.704Z,99270.23
2019-03-02T16:52:31.897Z,99273.30
2019-03-02T16:55:20.525Z,99287.40
2019-03-02T16:58:09.558Z,99292.25
2019-03-02T17:00:58.554Z,99308.07
2019-03-02T17:03:46.635Z,99308.47
2019-03-02T17:06:34.692Z,99314.28
2019-03-02T17:12:15.994Z,99315.77
2019-03-02T17:15:25.659Z,99322.48
2019-03-02T17:18:11.945Z,99319.86
2019-03-02T17:21:00.770Z,99329.45
2019-03-02T17:23:49.755Z,99343.66
2019-03-02T17:26:42.057Z,99341.78
2019-03-02T17:29:48.831Z,99349.50
2019-03-02T17:32:56.041Z,99349.11
2019-03-02T17:35:44.146Z,99358.77
2019-03-02T17:38:32.255Z,99363.89
2019-03-02T17:41:21.063Z,99365.04
2019-03-02T17:44:09.888Z,99381.18
2019-03-02T17:46:58.802Z,99381.77
2019-03-02T17:49:47.604Z,99383.13
2019-03-02T17:52:35.914Z,99393.98
2019-03-02T17:55:25.038Z,99399.13
2019-03-02T17:58:19.311Z,99409.97
2019-03-02T18:01:08.326Z,99420.54
2019-03-02T18:03:51.994Z,99421.84
2019-03-02T18:06:40.912Z,99414.33
2019-03-02T18:09:29.729Z,99421.23
2019-03-02T18:12:18.530Z,99421.02
2019-03-02T18:15:06.758Z,99425.53
2019-03-02T18:17:56.940Z,99430.21
2019-03-02T18:20:26.397Z,99441.33
2019-03-02T18:22:55.841Z,99448.07
2019-03-02T18:25:25.200Z,99446.67
2019-03-02T18:27:54.669Z,99442.35
2019-03-02T18:30:23.541Z,99441.76
2019-03-02T18:32:54.845Z,99447.87
2019-03-02T18:35:23.477Z,99447.45
2019-03-02T18:37:52.218Z,99457.52
2019-03-02T18:40:21.673Z,99465.33
2019-03-02T18:42:50.365Z,99469.59
2019-03-02T18:45:19.045Z,99477.33
2019-03-02T18:47:48.405Z,99474.59
2019-03-02T18:50:37.219Z,99481.91
2019-03-02T18:56:02.527Z,99497.30
2019-03-02T18:58:31.456Z,99507.98
2019-03-02T19:01:01.363Z,99513.61
2019-03-02T19:03:50.043Z,99518.52
2019-03-02T19:06:19.385Z,99531.33
2019-03-02T19:08:51.477Z,99520.47
2019-03-02T19:11:38.043Z,99522.50
2019-03-02T19:14:07.426Z,99519.30
2019-03-02T19:16:37.358Z,99515.06
2019-03-02T19:19:06.107Z,99518.14
2019-03-02T19:21:34.769Z,99521.87
2019-03-02T19:24:03.662Z,99521.71
2019-03-02T19:26:33.116Z,99522.44
2019-03-02T19:31:44.681Z,99541.73
2019-03-02T19:34:13.373Z,99546.02
2019-03-02T19:36:42.029Z,99561.66
2019-03-02T19:39:30.754Z,99569.70
2019-03-02T19:42:00.267Z,99576.09
2019-03-02T19:44:29.650Z,99581.96
2019-03-02T19:46:59.117Z,99576.24
2019-03-02T19:49:27.870Z,99581.61
2019-03-02T19:51:57.339Z,99594.05
2019-03-02T19:54:25.998Z,99602.61
2019-03-02T19:56:55.345Z,99604.10
2019-03-02T19:59:23.904Z,99610.23
2019-03-02T20:01:53.253Z,99609.08
2019-03-02T20:04:22.607Z,99602.92
2019-03-02T20:06:51.946Z,99601.79
2019-03-02T20:09:21.293Z,99606.04
2019-03-02T20:11:50.624Z,99608.66
2019-03-02T20:14:19.981Z,99614.70
2019-03-02T20:16:49.348Z,99610.27
2019-03-02T20:19:18.706Z,99613.73
2019-03-02T20:21:48.054Z,99620.11
2019-03-02T20:24:17.392Z,99620.56
2019-03-02T20:26:46.009Z,99624.39
2019-03-02T20:29:15.351Z,99620.73
2019-03-02T20:31:44.706Z,99628.96
2019-03-02T20:34:14.062Z,99628.25
2019-03-02T20:36:43.395Z,99633.03
2019-03-02T20:39:12.753Z,99627.90
2019-03-02T20:41:42.138Z,99634.18
2019-03-02T20:44:11.469Z,99636.57
2019-03-02T20:46:40.827Z,99634.78
2019-03-02T20:49:09.455Z,99637.02
2019-03-02T20:51:38.086Z,99632.16
2019-03-02T20:57:09.031Z,99635.95
2019-03-02T20:59:37.794Z,99640.88
2019-03-02T21:02:07.229Z,99642.86
2019-03-02T21:04:36.573Z,99637.21
2019-03-02T21:07:05.921Z,99638.95
2019-03-02T21:09:35.259Z,99635.54
2019-03-02T21:12:04.622Z,99644.00
2019-03-02T21:14:33.940Z,99640.38
2019-03-02T21:17:03.404Z,99644.82
2019-03-02T21:19:32.753Z,99643.48
2019-03-02T21:22:01.420Z,99641.94
2019-03-02T21:24:30.748Z,99640.09
2019-03-02T21:27:00.104Z,99643.05
2019-03-02T21:29:29.451Z,99646.30
2019-03-02T21:31:58.774Z,99643.66
2019-03-02T21:34:28.121Z,99640.08
2019-03-02T21:36:57.485Z,99641.32
2019-03-02T21:39:26.835Z,99644.22
2019-03-02T21:41:56.180Z,99650.55
2019-03-02T21:44:25.515Z,99651.48
2019-03-02T21:46:54.888Z,99654.00
2019-03-02T21:49:23.648Z,99661.16
2019-03-02T21:51:52.166Z,99661.36
2019-03-02T21:54:21.511Z,99667.98
2019-03-02T21:56:50.862Z,99670.50
2019-03-02T21:59:20.189Z,99673.98
2019-03-02T22:01:48.856Z,99679.34
2019-03-02T22:04:18.243Z,99687.30
2019-03-02T22:06:47.576Z,99681.22
2019-03-02T22:09:16.940Z,99678.06
2019-03-02T22:11:46.290Z,99679.33
2019-03-02T22:14:15.639Z,99681.59
2019-03-02T22:16:44.307Z,99687.36
2019-03-02T22:19:13.653Z,99690.28
2019-03-02T22:21:43.027Z,99693.78
2019-03-02T22:24:12.360Z,99686.50
2019-03-02T22:26:41.704Z,99697.56
2019-03-02T22:29:11.052Z,99697.17
2019-03-02T22:31:40.401Z,99701.17
2019-03-02T22:34:09.031Z,99696.95
2019-03-02T22:36:37.678Z,99702.02
2019-03-02T22:39:06.612Z,99700.45
2019-03-02T22:41:36.046Z,99709.02
2019-03-02T22:44:05.380Z,99704.98
2019-03-02T22:46:34.714Z,99700.48
2019-03-02T22:49:04.044Z,99703.28
2019-03-02T22:54:36.303Z,99710.00
2019-03-02T22:57:05.633Z,99719.47
2019-03-02T23:02:36.241Z,99723.56
2019-03-02T23:05:05.725Z,99727.48
2019-03-02T23:07:35.160Z,99730.91
2019-03-02T23:10:05.576Z,99733.15
2019-03-02T23:12:34.220Z,99732.84
2019-03-02T23:15:04.520Z,99725.80
2019-03-02T23:17:33.153Z,99729.02
2019-03-02T23:20:14.388Z,99733.30
2019-03-02T23:22:43.110Z,99731.91
2019-03-02T23:28:15.220Z,99751.13
2019-03-02T23:30:44.560Z,99755.04
2019-03-02T23:38:58.920Z,99752.52
2019-03-02T23:41:28.239Z,99757.29
2019-03-02T23:43:57.589Z,99763.03
2019-03-02T23:46:26.917Z,99763.98
2019-03-02T23:48:56.246Z,99760.13
2019-03-02T23:57:30.522Z,99763.34
2019-03-02T23:59:59.842Z,99764.34
